Time;durP1;ratioP1;P1;durP2;ratioP2;P2;SDS_P1;SDS_P2;PMS_P1;PMS_P2;Temp;Humidity;BMP_temperature;BMP_pressure;BME280_temperature;BME280_humidity;BME280_pressure;Samples;Min_cycle;Max_cycle;Signal;HPM_P1;HPM_P2
2024/01/05 00:01:04;;;;;;;0.50;0.50;;;;;;;;;;4996097;28;20042;-86
2024/01/05 00:03:30;;;;;;;0.40;0.40;;;;;;;;;;4973644;28;20035;-86
2024/01/05 00:05:56;;;;;;;0.40;0.40;;;;;;;;;;4966491;28;20046;-86
2024/01/05 00:08:22;;;;;;;0.50;0.50;;;;;;;;;;4972556;28;20494;-85
2024/01/05 00:10:48;;;;;;;0.50;0.50;;;;;;;;;;4961397;28;20039;-87
2024/01/05 00:13:14;;;;;;;0.50;0.50;;;;;;;;;;4977070;28;20046;-85
2024/01/05 00:15:41;;;;;;;0.50;0.50;;;;;;;;;;4977974;28;20089;-86
2024/01/05 00:18:07;;;;;;;0.50;0.50;;;;;;;;;;4978385;28;20393;-86
2024/01/05 00:20:33;;;;;;;0.40;0.40;;;;;;;;;;4974602;28;20043;-86
2024/01/05 00:22:59;;;;;;;0.50;0.50;;;;;;;;;;4975918;28;20034;-88
2024/01/05 00:25:25;;;;;;;0.40;0.40;;;;;;;;;;4958909;28;20042;-86
2024/01/05 00:27:54;;;;;;;0.40;0.40;;;;;;;;;;4958717;28;20093;-85
2024/01/05 00:30:20;;;;;;;0.40;0.40;;;;;;;;;;4958835;28;20046;-85
2024/01/05 00:32:46;;;;;;;0.50;0.50;;;;;;;;;;4959089;28;20497;-86
2024/01/05 00:35:12;;;;;;;0.50;0.50;;;;;;;;;;4976384;28;20461;-87
2024/01/05 00:37:38;;;;;;;0.50;0.50;;;;;;;;;;4958612;28;20042;-86
2024/01/05 00:40:06;;;;;;;0.40;0.40;;;;;;;;;;4958742;28;20049;-87
2024/01/05 00:42:32;;;;;;;0.50;0.50;;;;;;;;;;4958017;28;20035;-85
2024/01/05 00:44:58;;;;;;;0.50;0.50;;;;;;;;;;4958645;28;20038;-87
2024/01/05 00:47:24;;;;;;;0.50;0.50;;;;;;;;;;4974621;28;20097;-86
2024/01/05 00:49:50;;;;;;;0.40;0.40;;;;;;;;;;4978299;28;20461;-85
2024/01/05 00:52:16;;;;;;;0.50;0.50;;;;;;;;;;4994234;28;20421;-86
2024/01/05 00:54:42;;;;;;;0.47;0.47;;;;;;;;;;4982319;28;20053;-86
2024/01/05 00:57:08;;;;;;;0.50;0.50;;;;;;;;;;4958057;28;20046;-86
2024/01/05 00:59:34;;;;;;;0.50;0.50;;;;;;;;;;4974357;28;20046;-86
2024/01/05 01:02:00;;;;;;;0.50;0.50;;;;;;;;;;4958128;28;20035;-86
2024/01/05 01:04:29;;;;;;;0.40;0.40;;;;;;;;;;4976562;28;20037;-87
2024/01/05 01:06:55;;;;;;;0.50;0.50;;;;;;;;;;5008691;28;20475;-86
2024/01/05 01:09:21;;;;;;;0.50;0.50;;;;;;;;;;5001157;28;20537;-87
2024/01/05 01:11:49;;;;;;;0.50;0.50;;;;;;;;;;4976416;28;20058;-87
2024/01/05 01:14:15;;;;;;;0.47;0.47;;;;;;;;;;4991414;28;20048;-86
2024/01/05 01:16:41;;;;;;;0.50;0.50;;;;;;;;;;4994385;28;20038;-88
2024/01/05 01:19:07;;;;;;;0.50;0.50;;;;;;;;;;4974678;28;20121;-88
2024/01/05 01:21:33;;;;;;;0.63;0.63;;;;;;;;;;4981582;28;20113;-87
2024/01/05 01:23:59;;;;;;;0.50;0.50;;;;;;;;;;4986582;28;20064;-87
2024/01/05 01:26:25;;;;;;;0.50;0.50;;;;;;;;;;4979554;28;20125;-86
2024/01/05 01:28:51;;;;;;;0.40;0.40;;;;;;;;;;4971875;28;20050;-87
2024/01/05 01:31:17;;;;;;;0.55;0.55;;;;;;;;;;4968296;28;20039;-87
2024/01/05 01:33:43;;;;;;;0.50;0.50;;;;;;;;;;4962250;28;20053;-87
2024/01/05 01:36:09;;;;;;;0.45;0.45;;;;;;;;;;4975121;28;20046;-87
2024/01/05 01:38:36;;;;;;;0.50;0.50;;;;;;;;;;4990233;28;20440;-86
2024/01/05 01:41:02;;;;;;;0.45;0.45;;;;;;;;;;4984637;28;20540;-87
2024/01/05 01:43:28;;;;;;;0.50;0.50;;;;;;;;;;4978503;28;20033;-86
2024/01/05 01:45:58;;;;;;;0.50;0.50;;;;;;;;;;4988160;28;20094;-87
2024/01/05 01:48:24;;;;;;;0.68;0.68;;;;;;;;;;4999939;28;20038;-86
2024/01/05 01:50:51;;;;;;;0.50;0.50;;;;;;;;;;4977550;28;20042;-87
2024/01/05 01:53:18;;;;;;;0.50;0.50;;;;;;;;;;4981394;28;20115;-87
2024/01/05 01:55:44;;;;;;;0.50;0.50;;;;;;;;;;4992382;28;20038;-86
2024/01/05 01:58:10;;;;;;;0.60;0.60;;;;;;;;;;4987340;28;20041;-86
2024/01/05 02:00:36;;;;;;;0.50;0.50;;;;;;;;;;4994937;28;20397;-86
2024/01/05 02:03:02;;;;;;;0.50;0.50;;;;;;;;;;4972882;28;20042;-86
2024/01/05 02:05:29;;;;;;;0.60;0.60;;;;;;;;;;4957118;28;20043;-87
2024/01/05 02:07:55;;;;;;;0.50;0.50;;;;;;;;;;4972913;28;20129;-87
2024/01/05 02:10:21;;;;;;;0.50;0.50;;;;;;;;;;4973104;28;20082;-87
2024/01/05 02:12:47;;;;;;;0.50;0.50;;;;;;;;;;4982254;28;20418;-87
2024/01/05 02:15:13;;;;;;;0.50;0.50;;;;;;;;;;4969671;28;20085;-87
2024/01/05 02:17:39;;;;;;;0.50;0.50;;;;;;;;;;4978192;28;20074;-86
2024/01/05 02:20:05;;;;;;;0.50;0.50;;;;;;;;;;4963470;28;20043;-85
2024/01/05 02:22:33;;;;;;;0.50;0.50;;;;;;;;;;4979458;28;20034;-87
2024/01/05 02:24:59;;;;;;;0.50;0.50;;;;;;;;;;4975985;28;20042;-87
2024/01/05 02:27:30;;;;;;;0.50;0.50;;;;;;;;;;4970531;28;20092;-86
2024/01/05 02:29:56;;;;;;;0.40;0.40;;;;;;;;;;4973237;28;20043;-86
2024/01/05 02:32:22;;;;;;;0.50;0.50;;;;;;;;;;4972800;28;20101;-86
2024/01/05 02:34:48;;;;;;;0.50;0.50;;;;;;;;;;4956819;28;20047;-86
2024/01/05 02:37:14;;;;;;;0.60;0.60;;;;;;;;;;4983709;28;20042;-87
2024/01/05 02:39:40;;;;;;;0.40;0.40;;;;;;;;;;4997764;28;20397;-85
2024/01/05 02:42:06;;;;;;;0.50;0.50;;;;;;;;;;4979592;28;20038;-86
2024/01/05 02:44:32;;;;;;;0.50;0.50;;;;;;;;;;4979909;28;20049;-87
2024/01/05 02:46:58;;;;;;;0.50;0.50;;;;;;;;;;4980378;28;20045;-85
2024/01/05 02:49:24;;;;;;;0.50;0.50;;;;;;;;;;4996561;28;20038;-86
2024/01/05 02:51:50;;;;;;;0.50;0.50;;;;;;;;;;4976515;28;20053;-86
2024/01/05 02:54:16;;;;;;;0.50;0.50;;;;;;;;;;4960221;28;20457;-87
2024/01/05 02:56:45;;;;;;;0.50;0.50;;;;;;;;;;4960554;28;20046;-86
2024/01/05 02:59:12;;;;;;;0.40;0.40;;;;;;;;;;4960248;28;20666;-86
2024/01/05 03:01:39;;;;;;;0.50;0.50;;;;;;;;;;4994532;28;20045;-86
2024/01/05 03:04:05;;;;;;;0.50;0.50;;;;;;;;;;5015486;28;20125;-85
2024/01/05 03:06:31;;;;;;;0.50;0.50;;;;;;;;;;4985681;28;20121;-86
2024/01/05 03:08:57;;;;;;;0.50;0.50;;;;;;;;;;4999043;28;20108;-86
2024/01/05 03:11:45;;;;;;;0.40;0.40;;;;;;;;;;4973522;28;20500;-86
2024/01/05 03:14:11;;;;;;;0.50;0.50;;;;;;;;;;4990264;28;20042;-86
2024/01/05 03:16:37;;;;;;;0.40;0.40;;;;;;;;;;4967414;28;20042;-86
2024/01/05 03:19:03;;;;;;;0.40;0.40;;;;;;;;;;4979349;28;20078;-86
2024/01/05 03:21:29;;;;;;;0.50;0.50;;;;;;;;;;4995412;28;20038;-85
2024/01/05 03:23:55;;;;;;;0.50;0.50;;;;;;;;;;4978806;28;20038;-87
2024/01/05 03:26:21;;;;;;;0.50;0.50;;;;;;;;;;4979335;28;20482;-86
2024/01/05 03:28:47;;;;;;;0.50;0.50;;;;;;;;;;4975882;28;20053;-85
2024/01/05 03:31:13;;;;;;;0.50;0.50;;;;;;;;;;4970606;28;20558;-87
2024/01/05 03:33:40;;;;;;;0.40;0.40;;;;;;;;;;4975584;28;20050;-86
2024/01/05 03:36:18;;;;;;;0.50;0.50;;;;;;;;;;4975953;28;20070;-86
2024/01/05 03:38:44;;;;;;;0.50;0.50;;;;;;;;;;4975737;28;20096;-87
2024/01/05 03:41:13;;;;;;;0.47;0.47;;;;;;;;;;4975482;28;20038;-85
2024/01/05 03:43:39;;;;;;;0.50;0.50;;;;;;;;;;4975685;28;20046;-85
2024/01/05 03:46:09;;;;;;;0.47;0.47;;;;;;;;;;4959925;28;20046;-85
2024/01/05 03:48:35;;;;;;;0.45;0.45;;;;;;;;;;4958433;28;20054;-86
2024/01/05 03:51:01;;;;;;;0.40;0.40;;;;;;;;;;4975489;28;20446;-87
2024/01/05 03:53:27;;;;;;;0.40;0.40;;;;;;;;;;4958892;28;20140;-87
2024/01/05 03:55:53;;;;;;;0.45;0.45;;;;;;;;;;4959290;28;20433;-86
2024/01/05 03:58:19;;;;;;;0.50;0.50;;;;;;;;;;4959273;28;20125;-86
2024/01/05 04:00:48;;;;;;;0.50;0.50;;;;;;;;;;4982062;28;20113;-85
2024/01/05 04:03:16;;;;;;;0.50;0.50;;;;;;;;;;4975071;28;20121;-86
2024/01/05 04:05:42;;;;;;;0.55;0.55;;;;;;;;;;4975733;28;20073;-87
2024/01/05 04:08:08;;;;;;;0.40;0.40;;;;;;;;;;4975319;28;20401;-87
2024/01/05 04:10:34;;;;;;;0.47;0.47;;;;;;;;;;4976647;28;20042;-87
2024/01/05 04:13:00;;;;;;;0.50;0.50;;;;;;;;;;4991024;28;20402;-85
2024/01/05 04:15:27;;;;;;;0.43;0.43;;;;;;;;;;4975368;28;20489;-86
2024/01/05 04:17:54;;;;;;;0.50;0.50;;;;;;;;;;4975027;28;20085;-85
2024/01/05 04:20:19;;;;;;;0.50;0.50;;;;;;;;;;4974994;28;20045;-85
2024/01/05 04:22:45;;;;;;;0.50;0.50;;;;;;;;;;4975118;28;20513;-86
2024/01/05 04:25:11;;;;;;;0.50;0.50;;;;;;;;;;4991091;28;20039;-85
2024/01/05 04:27:38;;;;;;;0.45;0.45;;;;;;;;;;4994455;28;20121;-84
2024/01/05 04:30:05;;;;;;;0.50;0.50;;;;;;;;;;4978457;28;20556;-87
2024/01/05 04:32:31;;;;;;;0.40;0.40;;;;;;;;;;4977820;28;20042;-85
2024/01/05 04:34:57;;;;;;;0.40;0.40;;;;;;;;;;4978020;28;20493;-86
2024/01/05 04:37:23;;;;;;;0.50;0.50;;;;;;;;;;4977892;28;20050;-85
2024/01/05 04:39:49;;;;;;;0.40;0.40;;;;;;;;;;4978289;28;20489;-85
2024/01/05 04:42:15;;;;;;;0.30;0.30;;;;;;;;;;4995000;28;20858;-86
2024/01/05 04:44:41;;;;;;;0.50;0.50;;;;;;;;;;4977710;28;20038;-86
2024/01/05 04:47:07;;;;;;;0.40;0.40;;;;;;;;;;4977702;28;20045;-85
2024/01/05 04:49:34;;;;;;;0.40;0.40;;;;;;;;;;4978081;28;20047;-85
2024/01/05 04:52:00;;;;;;;0.60;0.60;;;;;;;;;;4994005;28;20129;-86
2024/01/05 04:54:26;;;;;;;0.45;0.45;;;;;;;;;;4977898;28;20039;-86
2024/01/05 04:56:52;;;;;;;0.50;0.50;;;;;;;;;;4977387;28;20607;-86
2024/01/05 04:59:20;;;;;;;0.40;0.40;;;;;;;;;;4994974;28;20064;-86
2024/01/05 05:01:46;;;;;;;3.03;2.25;;;;;;;;;;4986413;28;20412;-86
2024/01/05 05:04:14;;;;;;;0.40;0.40;;;;;;;;;;4988499;28;20034;-85
2024/01/05 05:06:40;;;;;;;0.40;0.40;;;;;;;;;;4976732;28;20059;-85
2024/01/05 05:09:06;;;;;;;0.50;0.50;;;;;;;;;;4988559;28;20052;-86
2024/01/05 05:11:32;;;;;;;0.50;0.50;;;;;;;;;;5012830;28;20046;-85
2024/01/05 05:13:58;;;;;;;0.50;0.50;;;;;;;;;;5012425;28;20046;-84
2024/01/05 05:16:24;;;;;;;0.40;0.40;;;;;;;;;;4994809;28;20042;-85
2024/01/05 05:18:50;;;;;;;0.50;0.50;;;;;;;;;;4969817;28;20039;-85
2024/01/05 05:21:16;;;;;;;0.40;0.40;;;;;;;;;;4993198;28;20038;-86
2024/01/05 05:23:42;;;;;;;0.43;0.43;;;;;;;;;;4976475;28;20034;-86
2024/01/05 05:26:08;;;;;;;0.50;0.50;;;;;;;;;;4976344;28;20464;-86
2024/01/05 05:28:34;;;;;;;0.40;0.40;;;;;;;;;;4992989;28;20097;-86
2024/01/05 05:31:00;;;;;;;0.80;0.80;;;;;;;;;;4991911;28;20043;-85
2024/01/05 05:33:26;;;;;;;0.45;0.45;;;;;;;;;;4975980;28;20101;-86
2024/01/05 05:35:52;;;;;;;0.50;0.50;;;;;;;;;;4992518;28;20099;-85
2024/01/05 05:38:19;;;;;;;0.50;0.50;;;;;;;;;;4976050;28;20042;-85
2024/01/05 05:40:45;;;;;;;0.50;0.50;;;;;;;;;;4971909;28;20072;-86
2024/01/05 05:43:11;;;;;;;0.40;0.40;;;;;;;;;;4972862;28;20174;-85
2024/01/05 05:45:37;;;;;;;0.40;0.40;;;;;;;;;;4956729;28;20042;-85
2024/01/05 05:48:04;;;;;;;0.40;0.40;;;;;;;;;;4973287;28;20043;-87
2024/01/05 05:50:30;;;;;;;0.40;0.40;;;;;;;;;;4956744;28;20049;-85
2024/01/05 05:52:56;;;;;;;0.38;0.38;;;;;;;;;;4956802;28;20097;-85
2024/01/05 05:55:22;;;;;;;0.50;0.50;;;;;;;;;;4956936;28;20054;-86
2024/01/05 05:57:48;;;;;;;0.50;0.50;;;;;;;;;;4956580;28;20047;-86
2024/01/05 06:00:14;;;;;;;0.50;0.50;;;;;;;;;;4956985;28;20038;-86
2024/01/05 06:02:40;;;;;;;0.30;0.30;;;;;;;;;;4964073;28;20035;-86
2024/01/05 06:05:06;;;;;;;0.40;0.40;;;;;;;;;;4956626;28;20538;-85
2024/01/05 06:07:33;;;;;;;0.30;0.30;;;;;;;;;;4973862;28;20050;-88
2024/01/05 06:09:59;;;;;;;0.40;0.40;;;;;;;;;;4973320;28;20398;-88
2024/01/05 06:12:25;;;;;;;0.40;0.40;;;;;;;;;;4955998;28;20043;-88
2024/01/05 06:14:51;;;;;;;0.50;0.50;;;;;;;;;;4957580;28;20043;-88
2024/01/05 06:17:18;;;;;;;0.50;0.50;;;;;;;;;;4973772;28;20046;-89
2024/01/05 06:19:44;;;;;;;0.45;0.45;;;;;;;;;;4962860;28;20508;-89
2024/01/05 06:22:10;;;;;;;0.40;0.40;;;;;;;;;;4989444;28;20074;-89
2024/01/05 06:24:36;;;;;;;0.45;0.45;;;;;;;;;;4973545;28;20050;-88
2024/01/05 06:27:03;;;;;;;0.40;0.40;;;;;;;;;;4973153;28;20055;-89
2024/01/05 06:29:29;;;;;;;0.50;0.50;;;;;;;;;;4965062;28;20031;-88
2024/01/05 06:31:55;;;;;;;0.50;0.50;;;;;;;;;;4964595;28;20097;-88
2024/01/05 06:34:21;;;;;;;0.40;0.40;;;;;;;;;;4984644;28;20116;-88
2024/01/05 06:36:47;;;;;;;0.40;0.40;;;;;;;;;;4977221;28;20493;-89
2024/01/05 06:39:13;;;;;;;0.47;0.47;;;;;;;;;;4992883;28;20042;-88
2024/01/05 06:41:39;;;;;;;0.40;0.40;;;;;;;;;;4976861;28;20457;-88
2024/01/05 06:44:05;;;;;;;0.50;0.50;;;;;;;;;;4992141;28;20046;-89
2024/01/05 06:46:31;;;;;;;0.40;0.40;;;;;;;;;;4996966;28;20102;-88
2024/01/05 06:48:57;;;;;;;0.50;0.50;;;;;;;;;;5009387;28;20405;-89
2024/01/05 06:51:23;;;;;;;0.50;0.50;;;;;;;;;;4973761;28;20397;-89
2024/01/05 06:53:49;;;;;;;0.40;0.40;;;;;;;;;;4990594;28;20429;-89
2024/01/05 06:56:18;;;;;;;0.40;0.40;;;;;;;;;;4980699;28;20038;-90
2024/01/05 06:58:44;;;;;;;0.40;0.40;;;;;;;;;;4997074;28;20050;-89
2024/01/05 07:01:10;;;;;;;0.40;0.40;;;;;;;;;;4976045;28;20046;-87
2024/01/05 07:03:36;;;;;;;0.40;0.40;;;;;;;;;;4975529;28;20613;-88
2024/01/05 07:06:02;;;;;;;0.40;0.40;;;;;;;;;;4988487;28;20038;-88
2024/01/05 07:08:28;;;;;;;0.40;0.40;;;;;;;;;;4956527;28;20050;-89
2024/01/05 07:10:54;;;;;;;0.50;0.50;;;;;;;;;;4973384;28;20043;-88
2024/01/05 07:13:20;;;;;;;0.45;0.45;;;;;;;;;;4974985;28;20076;-88
2024/01/05 07:15:46;;;;;;;0.50;0.50;;;;;;;;;;4997381;28;20045;-88
2024/01/05 07:18:12;;;;;;;0.40;0.40;;;;;;;;;;4956382;28;20046;-88
2024/01/05 07:20:38;;;;;;;0.50;0.50;;;;;;;;;;4972623;28;20453;-88
2024/01/05 07:23:04;;;;;;;0.50;0.50;;;;;;;;;;4957286;28;20038;-88
2024/01/05 07:25:30;;;;;;;0.50;0.50;;;;;;;;;;4974861;28;20045;-89
2024/01/05 07:27:56;;;;;;;0.50;0.50;;;;;;;;;;5016788;28;20048;-89
2024/01/05 07:30:22;;;;;;;0.47;0.47;;;;;;;;;;4998929;28;20436;-88
2024/01/05 07:33:08;;;;;;;0.40;0.40;;;;;;;;;;5014839;28;20042;-88
2024/01/05 07:35:34;;;;;;;0.43;0.43;;;;;;;;;;4987708;28;20042;-88
2024/01/05 07:38:00;;;;;;;0.40;0.40;;;;;;;;;;4976653;28;20043;-88
2024/01/05 07:40:26;;;;;;;0.50;0.50;;;;;;;;;;4973012;28;20125;-88
2024/01/05 07:42:52;;;;;;;0.40;0.40;;;;;;;;;;4959754;28;20236;-88
2024/01/05 07:45:18;;;;;;;0.50;0.50;;;;;;;;;;4959720;28;20050;-88
2024/01/05 07:47:47;;;;;;;0.40;0.40;;;;;;;;;;4959580;28;20046;-88
2024/01/05 07:50:13;;;;;;;0.50;0.50;;;;;;;;;;4960074;28;20493;-88
2024/01/05 07:52:39;;;;;;;0.50;0.50;;;;;;;;;;4959352;28;20050;-88
2024/01/05 07:55:05;;;;;;;0.45;0.45;;;;;;;;;;4967519;28;20391;-88
2024/01/05 07:57:31;;;;;;;0.45;0.45;;;;;;;;;;5014662;28;20042;-89
2024/01/05 07:59:57;;;;;;;0.50;0.50;;;;;;;;;;5015305;28;20088;-89
2024/01/05 08:02:23;;;;;;;0.50;0.50;;;;;;;;;;4973430;28;20035;-89
2024/01/05 08:04:49;;;;;;;0.40;0.40;;;;;;;;;;4977486;28;20042;-89
2024/01/05 08:07:17;;;;;;;0.50;0.50;;;;;;;;;;4960142;28;20085;-89
2024/01/05 08:09:43;;;;;;;0.50;0.50;;;;;;;;;;4960197;28;20046;-89
2024/01/05 08:12:10;;;;;;;0.80;0.80;;;;;;;;;;4976093;28;20102;-89
2024/01/05 08:14:36;;;;;;;0.40;0.40;;;;;;;;;;4960208;28;20564;-89
2024/01/05 08:17:02;;;;;;;0.40;0.40;;;;;;;;;;4976177;28;20590;-89
2024/01/05 08:19:28;;;;;;;0.50;0.50;;;;;;;;;;4959976;28;20043;-87
2024/01/05 08:21:54;;;;;;;0.50;0.50;;;;;;;;;;4959567;28;20438;-89
2024/01/05 08:24:20;;;;;;;0.50;0.50;;;;;;;;;;4959745;28;20050;-89
2024/01/05 08:26:46;;;;;;;0.50;0.50;;;;;;;;;;4980789;28;20121;-88
2024/01/05 08:29:11;;;;;;;0.50;0.50;;;;;;;;;;4958860;28;20042;-88
2024/01/05 08:31:39;;;;;;;0.40;0.40;;;;;;;;;;4959015;28;20536;-89
2024/01/05 08:34:05;;;;;;;0.40;0.40;;;;;;;;;;4974817;28;20393;-88
2024/01/05 08:36:31;;;;;;;0.45;0.45;;;;;;;;;;4976088;28;20043;-89
2024/01/05 08:38:57;;;;;;;0.45;0.45;;;;;;;;;;4959059;28;20081;-88
2024/01/05 08:41:23;;;;;;;0.40;0.40;;;;;;;;;;4973917;28;20049;-89
2024/01/05 08:43:49;;;;;;;0.50;0.50;;;;;;;;;;4977985;28;20039;-89
2024/01/05 08:46:15;;;;;;;0.50;0.50;;;;;;;;;;4995056;28;20046;-88
2024/01/05 08:48:45;;;;;;;0.40;0.40;;;;;;;;;;4971963;28;20035;-88
2024/01/05 08:51:11;;;;;;;0.40;0.40;;;;;;;;;;4971620;28;20038;-88
2024/01/05 08:53:37;;;;;;;0.50;0.50;;;;;;;;;;4977879;28;20038;-88
2024/01/05 08:56:03;;;;;;;0.40;0.40;;;;;;;;;;4974334;28;20039;-87
2024/01/05 08:58:29;;;;;;;0.40;0.40;;;;;;;;;;4974453;28;20045;-88
2024/01/05 09:00:57;;;;;;;0.50;0.50;;;;;;;;;;4958864;28;20406;-89
2024/01/05 09:03:23;;;;;;;0.40;0.40;;;;;;;;;;4958423;28;20045;-90
2024/01/05 09:05:50;;;;;;;0.40;0.40;;;;;;;;;;4975006;28;20035;-89
2024/01/05 09:08:16;;;;;;;0.40;0.40;;;;;;;;;;4974977;28;20050;-89
2024/01/05 09:10:41;;;;;;;0.47;0.47;;;;;;;;;;4975229;28;20394;-89
2024/01/05 09:13:08;;;;;;;0.40;0.40;;;;;;;;;;4963571;28;20105;-89
2024/01/05 09:15:34;;;;;;;0.50;0.50;;;;;;;;;;4977690;28;20042;-89
2024/01/05 09:18:00;;;;;;;0.45;0.45;;;;;;;;;;4977847;28;20038;-88
2024/01/05 09:20:26;;;;;;;0.50;0.50;;;;;;;;;;4978232;28;20129;-89
2024/01/05 09:22:52;;;;;;;0.50;0.50;;;;;;;;;;4977743;28;20042;-89
2024/01/05 09:25:18;;;;;;;0.50;0.50;;;;;;;;;;4994118;28;20070;-89
2024/01/05 09:27:52;;;;;;;0.30;0.30;;;;;;;;;;4993881;28;20069;-88
2024/01/05 09:30:18;;;;;;;0.40;0.40;;;;;;;;;;4974444;28;20133;-88
2024/01/05 09:32:44;;;;;;;0.40;0.40;;;;;;;;;;4958081;28;20054;-88
2024/01/05 09:35:11;;;;;;;0.30;0.30;;;;;;;;;;4960244;28;20043;-88
2024/01/05 09:37:37;;;;;;;0.40;0.40;;;;;;;;;;4969874;28;20043;-88
2024/01/05 09:40:03;;;;;;;0.40;0.40;;;;;;;;;;4974255;28;20497;-88
2024/01/05 09:42:29;;;;;;;0.40;0.40;;;;;;;;;;4973700;28;20035;-90
2024/01/05 09:44:55;;;;;;;0.50;0.50;;;;;;;;;;4973831;28;20078;-89
2024/01/05 09:47:22;;;;;;;0.50;0.50;;;;;;;;;;4973219;28;20097;-92
2024/01/05 09:50:01;;;;;;;0.40;0.40;;;;;;;;;;4957005;28;20043;-86
2024/01/05 09:52:45;;;;;;;0.40;0.40;;;;;;;;;;4959919;28;20038;-85
2024/01/05 09:55:11;;;;;;;0.40;0.40;;;;;;;;;;4975792;28;20054;-86
2024/01/05 09:57:39;;;;;;;0.40;0.40;;;;;;;;;;4975740;28;20043;-86
2024/01/05 10:00:06;;;;;;;0.40;0.40;;;;;;;;;;4977827;28;20030;-85
2024/01/05 10:02:33;;;;;;;0.40;0.40;;;;;;;;;;4975273;28;20045;-85
2024/01/05 10:05:00;;;;;;;0.40;0.40;;;;;;;;;;4976141;28;20121;-86
2024/01/05 10:07:26;;;;;;;0.50;0.50;;;;;;;;;;4991916;28;20053;-87
2024/01/05 10:09:53;;;;;;;0.40;0.40;;;;;;;;;;4975857;28;20046;-87
2024/01/05 10:12:20;;;;;;;0.40;0.40;;;;;;;;;;4972059;28;20106;-87
2024/01/05 10:14:47;;;;;;;0.40;0.40;;;;;;;;;;4956567;28;20038;-87
2024/01/05 10:17:13;;;;;;;0.40;0.40;;;;;;;;;;4956421;28;20506;-87
2024/01/05 10:19:41;;;;;;;0.40;0.40;;;;;;;;;;4972408;28;20243;-86
2024/01/05 10:22:14;;;;;;;0.50;0.50;;;;;;;;;;4957578;28;20039;-86
2024/01/05 10:24:40;;;;;;;0.40;0.40;;;;;;;;;;4961688;28;20125;-87
2024/01/05 10:27:09;;;;;;;0.40;0.40;;;;;;;;;;4955896;28;20082;-87
2024/01/05 10:29:36;;;;;;;0.40;0.40;;;;;;;;;;4972519;28;20042;-88
2024/01/05 10:32:12;;;;;;;0.30;0.30;;;;;;;;;;4955524;28;20043;-87
2024/01/05 10:34:39;;;;;;;0.40;0.40;;;;;;;;;;4956298;28;20039;-87
2024/01/05 10:37:06;;;;;;;0.40;0.40;;;;;;;;;;4972080;28;20049;-87
2024/01/05 10:39:32;;;;;;;0.30;0.30;;;;;;;;;;4955982;28;20449;-86
2024/01/05 10:42:18;;;;;;;0.50;0.50;;;;;;;;;;4958782;28;20505;-87
2024/01/05 10:44:47;;;;;;;0.40;0.40;;;;;;;;;;4964148;28;20093;-87
2024/01/05 10:47:17;;;;;;;0.40;0.40;;;;;;;;;;4979303;28;20493;-87
2024/01/05 10:49:50;;;;;;;0.40;0.40;;;;;;;;;;4991429;28;20050;-86
2024/01/05 10:52:18;;;;;;;0.40;0.40;;;;;;;;;;4971998;28;20097;-85
2024/01/05 10:54:45;;;;;;;0.40;0.40;;;;;;;;;;4972367;28;20125;-85
2024/01/05 10:57:12;;;;;;;0.30;0.30;;;;;;;;;;4973045;28;20039;-86
2024/01/05 10:59:49;;;;;;;0.45;0.45;;;;;;;;;;4959605;28;20050;-87
2024/01/05 11:02:41;;;;;;;0.30;0.30;;;;;;;;;;4959160;28;20096;-87
2024/01/05 11:05:11;;;;;;;0.40;0.40;;;;;;;;;;4971758;28;20054;-87
2024/01/05 11:07:37;;;;;;;0.40;0.40;;;;;;;;;;4960023;28;20065;-86
2024/01/05 11:10:13;;;;;;;0.40;0.40;;;;;;;;;;4977128;28;20065;-86
2024/01/05 11:12:58;;;;;;;0.30;0.30;;;;;;;;;;4972225;28;20038;-87
2024/01/05 11:15:40;;;;;;;0.20;0.20;;;;;;;;;;4959872;28;20043;-86
2024/01/05 11:18:29;;;;;;;0.40;0.40;;;;;;;;;;4975502;28;20635;-87
2024/01/05 11:20:55;;;;;;;0.43;0.43;;;;;;;;;;4959868;28;20041;-85
2024/01/05 11:23:22;;;;;;;0.40;0.40;;;;;;;;;;4963993;28;20038;-87
2024/01/05 11:25:49;;;;;;;0.40;0.40;;;;;;;;;;4982140;28;20042;-88
2024/01/05 11:28:34;;;;;;;0.40;0.40;;;;;;;;;;4986381;28;20485;-86
2024/01/05 11:31:01;;;;;;;0.30;0.30;;;;;;;;;;4978481;28;20171;-86
2024/01/05 11:33:43;;;;;;;0.32;0.32;;;;;;;;;;4994363;28;20101;-86
2024/01/05 11:36:09;;;;;;;0.40;0.40;;;;;;;;;;4994473;28;20132;-87
2024/01/05 11:38:42;;;;;;;0.40;0.40;;;;;;;;;;4978238;28;20042;-86
2024/01/05 11:41:18;;;;;;;0.50;0.50;;;;;;;;;;4978145;28;20047;-86
2024/01/05 11:43:44;;;;;;;0.40;0.40;;;;;;;;;;4993948;28;20039;-87
2024/01/05 11:46:10;;;;;;;0.40;0.40;;;;;;;;;;4978009;28;20046;-87
2024/01/05 11:48:36;;;;;;;0.40;0.40;;;;;;;;;;4980061;28;20545;-87
2024/01/05 11:51:02;;;;;;;0.30;0.30;;;;;;;;;;4972847;28;20129;-89
2024/01/05 11:53:29;;;;;;;0.40;0.40;;;;;;;;;;4983075;28;20421;-86
2024/01/05 11:55:58;;;;;;;0.40;0.40;;;;;;;;;;4962722;28;20537;-86
2024/01/05 11:58:27;;;;;;;0.32;0.32;;;;;;;;;;4977091;28;20043;-87
2024/01/05 12:00:57;;;;;;;0.40;0.40;;;;;;;;;;4990206;28;20043;-88
2024/01/05 12:03:27;;;;;;;0.40;0.40;;;;;;;;;;4987924;28;20509;-88
2024/01/05 12:06:11;;;;;;;0.40;0.40;;;;;;;;;;4962704;28;20254;-88
2024/01/05 12:08:38;;;;;;;0.40;0.40;;;;;;;;;;4965731;28;20038;-86
2024/01/05 12:11:08;;;;;;;0.40;0.40;;;;;;;;;;4993145;28;20050;-87
2024/01/05 12:13:34;;;;;;;0.50;0.50;;;;;;;;;;4974252;28;20050;-87
2024/01/05 12:16:02;;;;;;;0.40;0.40;;;;;;;;;;4967808;28;20520;-86
2024/01/05 12:18:30;;;;;;;0.40;0.40;;;;;;;;;;4975633;28;20090;-87
2024/01/05 12:20:57;;;;;;;0.40;0.40;;;;;;;;;;4969633;28;20043;-87
2024/01/05 12:23:23;;;;;;;0.40;0.40;;;;;;;;;;4989492;28;20509;-88
2024/01/05 12:26:03;;;;;;;0.40;0.40;;;;;;;;;;4968902;28;20538;-84
2024/01/05 12:28:30;;;;;;;0.50;0.50;;;;;;;;;;4965518;28;20043;-86
2024/01/05 12:30:56;;;;;;;0.40;0.40;;;;;;;;;;4974343;28;20405;-85
2024/01/05 12:33:23;;;;;;;0.40;0.40;;;;;;;;;;4989695;28;20046;-85
2024/01/05 12:35:50;;;;;;;0.40;0.40;;;;;;;;;;4974287;28;20433;-87
2024/01/05 12:38:23;;;;;;;0.43;0.43;;;;;;;;;;4977169;28;20039;-85
2024/01/05 12:40:49;;;;;;;0.40;0.40;;;;;;;;;;4977421;28;20077;-85
2024/01/05 12:43:16;;;;;;;0.40;0.40;;;;;;;;;;4973183;28;20046;-86
2024/01/05 12:45:43;;;;;;;0.40;0.40;;;;;;;;;;4970908;28;20073;-85
2024/01/05 12:48:12;;;;;;;0.40;0.40;;;;;;;;;;4983376;28;20042;-85
2024/01/05 12:50:38;;;;;;;0.50;0.50;;;;;;;;;;4992660;28;20101;-85
2024/01/05 12:53:17;;;;;;;0.40;0.40;;;;;;;;;;4990875;28;20078;-85
2024/01/05 12:55:43;;;;;;;0.40;0.40;;;;;;;;;;4977060;28;20141;-85
2024/01/05 12:58:09;;;;;;;0.40;0.40;;;;;;;;;;4976447;28;20085;-85
2024/01/05 13:00:43;;;;;;;0.40;0.40;;;;;;;;;;4976265;28;20482;-84
2024/01/05 13:03:18;;;;;;;0.30;0.30;;;;;;;;;;4976984;28;20617;-85
2024/01/05 13:05:47;;;;;;;0.40;0.40;;;;;;;;;;4989530;28;20085;-84
2024/01/05 13:08:13;;;;;;;0.40;0.40;;;;;;;;;;4964611;28;20046;-86
2024/01/05 13:10:39;;;;;;;0.40;0.40;;;;;;;;;;4965599;28;20051;-86
2024/01/05 13:13:12;;;;;;;0.40;0.40;;;;;;;;;;4972893;28;20038;-85
2024/01/05 13:15:39;;;;;;;0.30;0.30;;;;;;;;;;4973209;28;20052;-87
2024/01/05 13:18:05;;;;;;;0.40;0.40;;;;;;;;;;4992773;28;20495;-85
2024/01/05 13:20:31;;;;;;;0.40;0.40;;;;;;;;;;4976605;28;20494;-87
2024/01/05 13:23:00;;;;;;;0.40;0.40;;;;;;;;;;4976086;28;20039;-86
2024/01/05 13:25:26;;;;;;;0.40;0.40;;;;;;;;;;4976168;28;20043;-86
2024/01/05 13:27:52;;;;;;;0.40;0.40;;;;;;;;;;4991380;28;20077;-87
2024/01/05 13:30:18;;;;;;;0.50;0.50;;;;;;;;;;4964725;28;20050;-87
2024/01/05 13:32:45;;;;;;;0.40;0.40;;;;;;;;;;4972814;28;20049;-86
2024/01/05 13:35:11;;;;;;;0.40;0.40;;;;;;;;;;4956633;28;20084;-85
2024/01/05 13:37:37;;;;;;;0.50;0.50;;;;;;;;;;4972924;28;20050;-85
2024/01/05 13:40:04;;;;;;;0.40;0.40;;;;;;;;;;4956858;28;20078;-87
2024/01/05 13:42:35;;;;;;;0.35;0.35;;;;;;;;;;4954864;28;20038;-88
2024/01/05 13:45:06;;;;;;;0.40;0.40;;;;;;;;;;4989193;28;20069;-85
2024/01/05 13:47:35;;;;;;;0.35;0.35;;;;;;;;;;4993534;28;20416;-86
2024/01/05 13:50:01;;;;;;;0.47;0.47;;;;;;;;;;4975553;28;20100;-88
2024/01/05 13:52:27;;;;;;;0.40;0.40;;;;;;;;;;4973855;28;20497;-85
2024/01/05 13:54:53;;;;;;;0.40;0.40;;;;;;;;;;4960973;28;20057;-86
2024/01/05 13:57:21;;;;;;;0.47;0.47;;;;;;;;;;4972130;28;20053;-86
2024/01/05 13:59:47;;;;;;;0.40;0.40;;;;;;;;;;4980871;28;20042;-87
2024/01/05 14:02:13;;;;;;;0.40;0.40;;;;;;;;;;4975305;28;20049;-86
2024/01/05 14:04:39;;;;;;;0.40;0.40;;;;;;;;;;4975540;28;20034;-87
2024/01/05 14:07:10;;;;;;;0.50;0.50;;;;;;;;;;4980622;28;20047;-86
2024/01/05 14:09:36;;;;;;;0.50;0.50;;;;;;;;;;4973019;28;20047;-87
2024/01/05 14:12:02;;;;;;;0.40;0.40;;;;;;;;;;4979486;28;20409;-88
2024/01/05 14:14:28;;;;;;;0.50;0.50;;;;;;;;;;4986934;28;20030;-87
2024/01/05 14:16:56;;;;;;;0.40;0.40;;;;;;;;;;4973458;28;20047;-87
2024/01/05 14:19:27;;;;;;;0.40;0.40;;;;;;;;;;4972214;28;20038;-86
2024/01/05 14:21:54;;;;;;;0.50;0.50;;;;;;;;;;4969484;28;20047;-86
2024/01/05 14:24:30;;;;;;;0.40;0.40;;;;;;;;;;4982844;28;20401;-85
2024/01/05 14:26:56;;;;;;;0.50;0.50;;;;;;;;;;4971333;28;20133;-86
2024/01/05 14:29:22;;;;;;;0.40;0.40;;;;;;;;;;4967394;28;20125;-85
2024/01/05 14:31:48;;;;;;;0.43;0.43;;;;;;;;;;4968799;28;20153;-85
2024/01/05 14:34:14;;;;;;;0.50;0.50;;;;;;;;;;4986065;28;20082;-85
2024/01/05 14:36:40;;;;;;;0.30;0.30;;;;;;;;;;4960889;28;20046;-83
2024/01/05 14:39:06;;;;;;;0.40;0.40;;;;;;;;;;4983522;28;20516;-85
2024/01/05 14:41:35;;;;;;;0.40;0.40;;;;;;;;;;4967202;28;20490;-85
2024/01/05 14:44:01;;;;;;;0.50;0.50;;;;;;;;;;4970883;28;20051;-85